Time;durP1;ratioP1;P1;durP2;ratioP2;P2;SDS_P1;SDS_P2;PMS_P1;PMS_P2;Temp;Humidity;BMP_temperature;BMP_pressure;BME280_temperature;BME280_humidity;BME280_pressure;Samples;Min_cycle;Max_cycle;Signal;HPM_P1;HPM_P2
2021/11/07 00:06:27;;;;;;;9.13;5.63;;;;;;;2.81;100.00;96988.50;5347542;55;20980;-74
2021/11/07 00:11:37;;;;;;;8.02;5.50;;;;;;;3.20;100.00;96990.28;5348455;55;20121;-76
2021/11/07 00:16:42;;;;;;;7.95;5.68;;;;;;;3.30;100.00;96982.03;5338771;55;20116;-75
2021/11/07 00:26:55;;;;;;;6.38;4.30;;;;;;;3.30;100.00;96994.94;5348366;55;20667;-75
2021/11/07 00:37:16;;;;;;;7.95;4.85;;;;;;;3.23;100.00;97000.41;5347307;55;20109;-75
2021/11/07 00:42:26;;;;;;;7.45;5.63;;;;;;;3.31;100.00;97010.91;5348046;55;20131;-75
2021/11/07 00:52:53;;;;;;;7.20;5.70;;;;;;;3.22;100.00;97021.50;5347960;55;20104;-75
2021/11/07 00:58:06;;;;;;;7.03;5.43;;;;;;;3.11;100.00;97033.63;5348875;55;20126;-76
2021/11/07 01:03:16;;;;;;;5.22;4.35;;;;;;;2.93;100.00;97022.78;5347719;55;20585;-76
2021/11/07 01:08:18;;;;;;;10.38;4.50;;;;;;;2.88;100.00;97013.03;5349783;55;20116;-75
2021/11/07 01:13:21;;;;;;;11.18;6.03;;;;;;;2.99;100.00;97042.25;5351097;55;20144;-75
2021/11/07 01:18:23;;;;;;;7.82;5.78;;;;;;;3.04;100.00;97030.91;5351088;55;20643;-75
2021/11/07 01:23:37;;;;;;;11.02;5.25;;;;;;;3.16;100.00;97003.19;5351364;55;20117;-75
2021/11/07 01:28:46;;;;;;;5.95;4.65;;;;;;;3.36;100.00;97002.31;5350882;55;20602;-75
2021/11/07 01:33:49;;;;;;;5.20;4.07;;;;;;;3.28;100.00;97008.22;5351228;55;20126;-74
2021/11/07 01:39:02;;;;;;;8.85;6.78;;;;;;;3.51;100.00;96981.13;5350542;55;20108;-75
2021/11/07 01:44:05;;;;;;;8.70;6.10;;;;;;;3.40;100.00;96970.28;5352100;55;20135;-74
2021/11/07 01:49:13;;;;;;;7.53;5.70;;;;;;;3.33;100.00;96961.34;5352968;55;20112;-74
2021/11/07 01:59:19;;;;;;;8.85;5.75;;;;;;;3.56;100.00;96954.16;5350656;55;20657;-74
2021/11/07 02:04:22;;;;;;;8.68;5.97;;;;;;;3.50;100.00;96947.59;5350466;55;20602;-75
2021/11/07 02:09:24;;;;;;;10.85;6.97;;;;;;;3.53;100.00;96943.25;5350521;55;20643;-74
2021/11/07 02:14:32;;;;;;;8.57;5.47;;;;;;;3.66;100.00;96951.78;5350902;55;20691;-74
2021/11/07 02:19:35;;;;;;;8.60;6.05;;;;;;;3.72;100.00;96941.94;5350132;55;20201;-74
2021/11/07 02:24:39;;;;;;;12.65;6.68;;;;;;;3.74;100.00;96934.91;5350361;55;20121;-73
2021/11/07 02:29:42;;;;;;;12.45;8.10;;;;;;;3.66;100.00;96919.75;5350035;55;20122;-75
2021/11/07 02:34:45;;;;;;;14.43;8.52;;;;;;;3.70;100.00;96895.91;5350297;55;20121;-75
2021/11/07 02:39:47;;;;;;;12.45;7.45;;;;;;;3.81;100.00;96896.59;5349814;55;20113;-75
2021/11/07 02:44:49;;;;;;;12.82;7.30;;;;;;;3.51;100.00;96904.63;5349731;55;20622;-75
2021/11/07 02:49:52;;;;;;;15.95;7.53;;;;;;;3.68;100.00;96892.81;5349823;55;20125;-75
2021/11/07 02:54:54;;;;;;;11.30;6.63;;;;;;;3.71;100.00;96889.25;5349605;55;20116;-75
2021/11/07 03:00:03;;;;;;;9.35;6.47;;;;;;;3.58;100.00;96877.25;5349840;55;20597;-74
2021/11/07 03:05:07;;;;;;;9.13;6.00;;;;;;;3.38;100.00;96868.06;5350102;55;20138;-75
2021/11/07 03:10:11;;;;;;;11.15;7.20;;;;;;;3.46;100.00;96875.78;5349134;55;20587;-75
2021/11/07 03:15:14;;;;;;;10.43;6.28;;;;;;;3.62;100.00;96867.84;5349410;55;20570;-75
2021/11/07 03:20:16;;;;;;;7.97;5.47;;;;;;;3.59;100.00;96846.03;5349306;55;20126;-75
2021/11/07 03:25:18;;;;;;;7.68;5.25;;;;;;;3.44;100.00;96845.34;5336051;55;20117;-75
2021/11/07 03:35:39;;;;;;;11.43;6.43;;;;;;;2.98;100.00;96849.63;5348949;55;20701;-75
2021/11/07 03:40:41;;;;;;;6.40;4.40;;;;;;;3.09;100.00;96877.63;5348961;55;20692;-75
2021/11/07 03:45:44;;;;;;;8.65;5.65;;;;;;;3.13;100.00;96873.69;5348585;55;20121;-75
2021/11/07 03:50:46;;;;;;;8.05;5.53;;;;;;;3.10;100.00;96863.56;5346029;55;20189;-75
2021/11/07 03:55:49;;;;;;;5.88;4.43;;;;;;;3.18;100.00;96847.91;5348654;55;20576;-75
2021/11/07 04:00:52;;;;;;;8.25;4.90;;;;;;;3.11;100.00;96837.81;5348814;55;20116;-75
2021/11/07 04:05:54;;;;;;;7.22;4.55;;;;;;;3.21;100.00;96836.19;5348598;55;20684;-75
2021/11/07 04:10:57;;;;;;;8.57;6.07;;;;;;;3.01;100.00;96813.34;5348688;55;20126;-74
2021/11/07 04:15:59;;;;;;;6.63;4.43;;;;;;;3.02;100.00;96815.66;5339129;55;20135;-75
2021/11/07 04:21:02;;;;;;;3.13;2.80;;;;;;;2.96;100.00;96803.63;5348614;55;20540;-74
2021/11/07 04:26:05;;;;;;;9.68;5.55;;;;;;;3.03;100.00;96802.78;5348375;55;20139;-74
2021/11/07 04:31:08;;;;;;;3.97;3.10;;;;;;;2.98;100.00;96811.41;5348469;55;20117;-74
2021/11/07 04:36:10;;;;;;;8.00;5.35;;;;;;;2.98;100.00;96814.91;5341403;55;20113;-75
2021/11/07 04:41:17;;;;;;;8.10;5.47;;;;;;;3.03;100.00;96802.78;5348720;55;20581;-74
2021/11/07 04:46:20;;;;;;;3.03;2.67;;;;;;;3.16;100.00;96796.44;5351254;55;20130;-75
2021/11/07 04:51:22;;;;;;;12.75;6.70;;;;;;;3.38;100.00;96794.31;5351839;55;20240;-75
2021/11/07 04:56:26;;;;;;;12.38;6.75;;;;;;;3.27;100.00;96816.25;5351473;55;20113;-75
2021/11/07 05:01:28;;;;;;;8.65;5.40;;;;;;;3.41;100.00;96812.63;5351580;55;20108;-74
2021/11/07 05:06:31;;;;;;;8.30;5.65;;;;;;;3.47;100.00;96822.72;5341640;55;20131;-74
2021/11/07 05:11:33;;;;;;;10.30;5.65;;;;;;;3.52;100.00;96829.69;5351350;55;20104;-75
2021/11/07 05:16:36;;;;;;;11.20;6.70;;;;;;;3.58;100.00;96841.72;5351373;55;20130;-74
2021/11/07 05:21:39;;;;;;;11.73;6.25;;;;;;;3.73;100.00;96826.00;5351428;55;20130;-75
2021/11/07 05:26:42;;;;;;;12.63;6.40;;;;;;;3.51;100.00;96817.19;5341751;55;20589;-75
2021/11/07 05:31:45;;;;;;;8.82;5.43;;;;;;;3.42;100.00;96823.13;5350991;55;20192;-75
2021/11/07 05:36:48;;;;;;;11.10;7.25;;;;;;;2.94;100.00;96811.41;5350750;55;20647;-75
2021/11/07 05:41:50;;;;;;;11.15;6.38;;;;;;;2.92;100.00;96804.81;5350773;55;20121;-74
2021/11/07 05:46:53;;;;;;;10.13;6.18;;;;;;;2.98;100.00;96805.94;5341257;55;20129;-75
2021/11/07 05:51:55;;;;;;;8.32;5.43;;;;;;;2.88;100.00;96808.34;5334707;55;20173;-74
2021/11/07 05:57:00;;;;;;;9.48;6.30;;;;;;;2.88;100.00;96781.03;5357262;55;20125;-74
2021/11/07 06:02:03;;;;;;;8.85;5.50;;;;;;;3.01;100.00;96794.22;5350701;55;20117;-74
2021/11/07 06:07:05;;;;;;;12.23;6.38;;;;;;;2.82;100.00;96770.97;5350237;55;20130;-75
2021/11/07 06:12:09;;;;;;;8.65;5.47;;;;;;;2.92;100.00;96739.31;5351186;55;20117;-74
2021/11/07 06:17:12;;;;;;;4.10;3.45;;;;;;;2.71;100.00;96716.44;5350040;55;20546;-74
2021/11/07 06:22:15;;;;;;;4.43;3.90;;;;;;;2.81;99.38;96710.13;5349896;55;20125;-74
2021/11/07 06:27:18;;;;;;;8.50;5.18;;;;;;;2.78;99.24;96716.38;5349832;55;20133;-75
2021/11/07 06:32:20;;;;;;;8.25;6.05;;;;;;;2.67;100.00;96753.09;5351072;55;20126;-74
2021/11/07 06:37:23;;;;;;;7.05;4.70;;;;;;;2.85;99.85;96768.19;5353651;55;20112;-75
2021/11/07 06:42:25;;;;;;;4.65;3.95;;;;;;;2.65;100.00;96780.81;5340915;55;20121;-75
2021/11/07 06:47:28;;;;;;;6.68;3.17;;;;;;;2.75;100.00;96771.78;5349395;55;20144;-73
2021/11/07 06:52:30;;;;;;;8.45;6.28;;;;;;;2.90;99.77;96794.28;5349532;55;20121;-74
2021/11/07 06:57:32;;;;;;;10.38;6.78;;;;;;;2.86;100.00;96812.63;5349600;55;20124;-73
2021/11/07 07:02:35;;;;;;;8.80;6.60;;;;;;;2.84;100.00;96815.78;5349589;55;20095;-75
2021/11/07 07:07:42;;;;;;;9.50;6.57;;;;;;;2.96;100.00;96814.53;5348712;55;20133;-75
2021/11/07 07:12:52;;;;;;;8.07;5.93;;;;;;;3.08;100.00;96810.53;5349095;55;20121;-75
2021/11/07 07:28:32;;;;;;;9.13;6.30;;;;;;;3.48;97.94;96796.19;5348550;55;20112;-75
2021/11/07 07:33:50;;;;;;;9.80;6.95;;;;;;;3.70;97.09;96797.53;5348816;55;20151;-75
2021/11/07 07:38:52;;;;;;;10.75;6.72;;;;;;;3.75;97.50;96782.63;5348722;55;20125;-74
2021/11/07 07:43:56;;;;;;;12.73;6.38;;;;;;;3.69;97.58;96767.88;5348766;55;20173;-74
2021/11/07 07:48:59;;;;;;;12.15;6.45;;;;;;;3.92;96.81;96771.50;5348539;55;20125;-75
2021/11/07 07:54:04;;;;;;;10.32;6.70;;;;;;;4.22;95.42;96757.09;5341540;55;20112;-75
2021/11/07 07:59:07;;;;;;;8.60;5.82;;;;;;;4.47;93.60;96754.03;5348206;55;20130;-75
2021/11/07 08:04:10;;;;;;;8.73;5.20;;;;;;;4.18;92.99;96754.38;5348618;55;20117;-75
2021/11/07 08:09:12;;;;;;;12.57;6.93;;;;;;;3.95;93.83;96748.81;5348270;55;20112;-75
2021/11/07 08:14:15;;;;;;;12.05;6.68;;;;;;;4.16;93.96;96723.94;5348340;55;20113;-75
2021/11/07 08:19:17;;;;;;;11.32;7.38;;;;;;;4.38;93.83;96724.44;5351897;55;20107;-75
2021/11/07 08:24:20;;;;;;;8.63;6.50;;;;;;;4.49;91.04;96721.56;5352164;55;20325;-74
2021/11/07 08:29:22;;;;;;;10.25;6.53;;;;;;;5.16;89.21;96723.28;5350925;55;20099;-71
2021/11/07 08:34:28;;;;;;;9.40;6.97;;;;;;;5.54;86.99;96708.84;5350075;55;20648;-72
2021/11/07 08:39:36;;;;;;;9.90;6.68;;;;;;;5.53;87.76;96706.56;5350208;55;20121;-72
2021/11/07 09:01:38;;;;;;;9.27;5.65;;;;;;;6.02;84.11;96680.16;5350307;55;20143;-73
2021/11/07 09:06:43;;;;;;;9.65;6.28;;;;;;;5.93;83.19;96650.56;5349627;55;20121;-72
2021/11/07 09:11:54;;;;;;;6.45;5.68;;;;;;;6.13;81.24;96631.34;5345938;55;20588;-73
2021/11/07 09:16:57;;;;;;;7.53;5.40;;;;;;;6.67;81.28;96623.41;5351286;55;20161;-72
2021/11/07 09:22:05;;;;;;;6.28;4.85;;;;;;;7.00;76.45;96609.22;5350959;55;20643;-72
2021/11/07 09:27:18;;;;;;;5.90;4.87;;;;;;;7.43;75.42;96586.88;5339981;55;20139;-72
2021/11/07 09:37:39;;;;;;;5.07;4.00;;;;;;;8.09;71.25;96572.38;5347764;55;20122;-73
2021/11/07 09:48:03;;;;;;;5.05;3.97;;;;;;;8.61;65.44;96558.16;5339398;55;20575;-73
2021/11/07 09:53:06;;;;;;;5.20;3.40;;;;;;;9.22;65.90;96577.72;5340862;55;20197;-74
2021/11/07 09:58:08;;;;;;;3.90;3.03;;;;;;;9.78;60.36;96566.63;5346660;55;20117;-73
2021/11/07 10:03:14;;;;;;;3.83;2.83;;;;;;;9.87;60.64;96576.94;5347861;55;20121;-73
2021/11/07 10:08:18;;;;;;;2.95;2.70;;;;;;;10.13;58.18;96578.38;5348817;55;20196;-72
2021/11/07 10:13:24;;;;;;;4.30;2.20;;;;;;;10.29;57.32;96580.13;5340053;55;20693;-71
2021/11/07 10:24:00;;;;;;;2.22;2.00;;;;;;;9.39;58.58;96579.09;5343847;55;20158;-73
2021/11/07 10:29:04;;;;;;;2.55;2.13;;;;;;;9.37;59.43;96589.81;5337320;55;20121;-73
2021/11/07 10:55:35;;;;;;;3.28;2.30;;;;;;;9.02;59.85;96494.56;5180412;57;19994;-70
2021/11/07 11:00:47;;;;;;;2.45;2.25;;;;;;;9.05;59.92;96503.91;5196583;56;20150;-70
2021/11/07 11:05:53;;;;;;;1.92;1.83;;;;;;;10.31;57.05;96511.38;5199708;56;20123;-70
2021/11/07 11:16:26;;;;;;;2.45;2.25;;;;;;;11.62;51.38;96504.56;5200684;56;20150;-72
2021/11/07 11:53:51;;;;;;;1.63;1.52;;;;;;;11.59;49.14;96493.63;5196563;57;20700;-71
2021/11/07 11:58:59;;;;;;;1.52;1.42;;;;;;;11.98;48.65;96446.31;5203679;57;20127;-71
2021/11/07 12:09:21;;;;;;;;;;;;;;;12.19;47.92;96427.88;5201942;57;20119;-71
2021/11/07 12:14:47;;;;;;;1.70;1.60;;;;;;;12.24;46.51;96421.72;5205208;57;19979;-72
2021/11/07 12:19:50;;;;;;;2.75;1.30;;;;;;;12.41;47.71;96417.31;5197027;56;20123;-71
2021/11/07 12:24:53;;;;;;;1.58;1.48;;;;;;;12.65;45.69;96409.75;5204233;56;20110;-71
2021/11/07 12:30:10;;;;;;;2.05;1.50;;;;;;;13.04;44.89;96388.31;5204651;56;20243;-71
2021/11/07 12:35:24;;;;;;;1.52;1.42;;;;;;;12.63;47.17;96392.81;5209620;56;20219;-71
2021/11/07 12:40:42;;;;;;;1.42;1.33;;;;;;;12.71;47.36;96396.75;5201372;56;20141;-71
2021/11/07 12:45:50;;;;;;;1.30;1.20;;;;;;;12.56;47.32;96401.50;5193871;56;20132;-70
2021/11/07 12:50:58;;;;;;;1.23;1.15;;;;;;;12.23;49.01;96398.03;5197794;56;20738;-70
2021/11/07 12:56:08;;;;;;;2.50;1.50;;;;;;;13.04;47.05;96398.63;5198854;56;20214;-70
2021/11/07 13:01:11;;;;;;;1.70;1.60;;;;;;;12.72;44.62;96403.84;5195273;56;20114;-70
2021/11/07 13:06:13;;;;;;;1.60;1.50;;;;;;;12.78;44.58;96401.91;5197936;56;20600;-71
2021/11/07 13:11:24;;;;;;;2.15;1.95;;;;;;;13.32;43.88;96416.59;5201440;56;20119;-71
2021/11/07 13:17:05;;;;;;;2.85;2.38;;;;;;;13.79;43.41;96396.94;5208547;56;20132;-71
2021/11/07 13:27:27;;;;;;;3.05;2.50;;;;;;;12.31;47.54;96388.09;5221264;56;20123;-71
2021/11/07 13:37:44;;;;;;;2.63;2.42;;;;;;;12.68;48.59;96383.84;5202526;56;20128;-70
2021/11/07 13:42:47;;;;;;;2.30;2.10;;;;;;;12.83;44.58;96370.00;5202882;56;20119;-71
2021/11/07 13:47:50;;;;;;;2.20;2.10;;;;;;;12.74;46.55;96376.38;5206658;57;20132;-71
2021/11/07 13:52:53;;;;;;;2.17;1.98;;;;;;;12.56;49.03;96371.00;5208271;57;20746;-71
2021/11/07 13:58:08;;;;;;;4.22;2.40;;;;;;;11.93;49.04;96369.41;5207253;57;20105;-71
2021/11/07 14:03:14;;;;;;;2.40;2.15;;;;;;;11.91;49.31;96369.13;5203163;56;20140;-72
2021/11/07 14:08:17;;;;;;;2.28;2.08;;;;;;;11.47;49.66;96359.75;5206264;56;20141;-72
2021/11/07 14:13:19;;;;;;;1.75;1.65;;;;;;;11.31;49.02;96360.09;5208512;56;20113;-72
2021/11/07 14:18:29;;;;;;;2.83;1.83;;;;;;;11.55;46.41;96349.88;5208284;56;20759;-70
2021/11/07 14:23:42;;;;;;;1.83;1.60;;;;;;;11.22;46.75;96363.66;5213175;56;20262;-70
2021/11/07 14:29:25;;;;;;;1.67;1.58;;;;;;;11.40;47.49;96355.31;5204637;56;20344;-70
2021/11/07 14:39:46;;;;;;;1.67;1.58;;;;;;;11.02;48.50;96360.66;5204158;56;20110;-72
2021/11/07 14:45:16;;;;;;;2.05;1.77;;;;;;;10.88;49.15;96375.09;5206295;56;20136;-71
2021/11/07 15:00:46;;;;;;;2.42;1.73;;;;;;;10.28;49.68;96368.69;5202606;56;20131;-70
2021/11/07 15:06:24;;;;;;;0.77;0.77;;;;;;;9.82;59.92;96370.53;5202855;56;20127;-70
2021/11/07 15:11:39;;;;;;;1.20;1.10;;;;;;;9.71;61.70;96367.44;5205543;56;20132;-71
2021/11/07 15:16:48;;;;;;;1.30;1.25;;;;;;;9.82;58.85;96359.50;5205383;56;20120;-70
2021/11/07 15:22:02;;;;;;;1.00;0.85;;;;;;;9.84;58.29;96368.09;5207856;56;20236;-73
2021/11/07 15:27:06;;;;;;;;;;;;;;;9.85;58.86;96364.91;5203292;56;20136;-70
2021/11/07 15:32:12;;;;;;;1.90;1.70;;;;;;;9.82;57.64;96363.03;5214442;56;20054;-71
2021/11/07 15:37:29;;;;;;;2.47;1.77;;;;;;;9.77;57.44;96363.63;5207716;56;20140;-70
2021/11/07 15:42:39;;;;;;;2.28;2.08;;;;;;;9.70;56.82;96352.88;5212555;56;20113;-70
2021/11/07 15:47:45;;;;;;;2.55;1.90;;;;;;;9.57;58.08;96351.47;5210806;56;20244;-71
2021/11/07 15:53:05;;;;;;;1.73;1.63;;;;;;;9.66;58.75;96351.50;5205165;56;20678;-71
2021/11/07 16:08:46;;;;;;;1.85;1.70;;;;;;;9.55;57.15;96362.94;5203745;56;20158;-70
2021/11/07 16:14:04;;;;;;;2.15;1.83;;;;;;;9.43;57.59;96360.31;5205299;56;20153;-70
2021/11/07 16:19:19;;;;;;;3.85;2.72;;;;;;;9.42;57.43;96356.00;5204992;57;20188;-71
2021/11/07 16:24:24;;;;;;;8.40;3.20;;;;;;;9.39;58.00;96358.44;5211348;56;20128;-71
2021/11/07 16:29:29;;;;;;;6.63;3.42;;;;;;;9.33;59.33;96365.00;5210231;56;20133;-71
2021/11/07 16:34:37;;;;;;;3.85;3.05;;;;;;;9.30;59.62;96371.44;5212180;56;20193;-70
2021/11/07 16:39:45;;;;;;;4.10;2.38;;;;;;;9.15;61.46;96351.13;5213676;56;20222;-71
2021/11/07 16:44:48;;;;;;;2.17;1.93;;;;;;;9.18;61.74;96361.28;5201118;56;20302;-70
2021/11/07 16:49:53;;;;;;;1.92;1.83;;;;;;;8.98;61.44;96366.38;5212480;56;20123;-71
2021/11/07 16:55:05;;;;;;;3.38;2.45;;;;;;;9.02;61.57;96378.81;5199119;56;20114;-71
2021/11/07 17:00:18;;;;;;;2.38;2.10;;;;;;;8.96;63.16;96382.56;5198529;56;20166;-71
2021/11/07 17:05:27;;;;;;;2.78;2.53;;;;;;;8.81;62.74;96385.09;5216831;56;20220;-72
2021/11/07 17:10:34;;;;;;;2.88;2.20;;;;;;;8.80;63.58;96380.78;5213896;56;20106;-71
2021/11/07 17:15:41;;;;;;;5.63;2.42;;;;;;;8.79;63.84;96382.00;5209162;56;20145;-71
2021/11/07 17:26:13;;;;;;;1.55;1.45;;;;;;;8.77;65.81;96386.44;5224862;56;20124;-72
2021/11/07 17:31:15;;;;;;;1.63;1.45;;;;;;;8.74;66.80;96381.81;5214889;56;20135;-72
2021/11/07 17:44:57;;;;;;;1.73;1.63;;;;;;;8.94;67.14;96405.06;5199151;57;20690;-72
2021/11/07 17:57:37;;;;;;;1.90;1.80;;;;;;;8.87;68.01;96399.81;5197929;57;20115;-72
2021/11/07 18:02:41;;;;;;;1.67;1.58;;;;;;;8.91;68.94;96410.72;5207292;56;20145;-73
2021/11/07 18:07:58;;;;;;;2.30;2.00;;;;;;;8.91;68.11;96396.94;5219855;56;20119;-72
2021/11/07 18:13:06;;;;;;;2.30;2.10;;;;;;;8.84;68.79;96405.47;5206253;57;20162;-73
2021/11/07 18:18:10;;;;;;;3.38;2.30;;;;;;;8.94;68.79;96407.06;5204671;56;20106;-71
2021/11/07 18:23:15;;;;;;;2.03;1.90;;;;;;;8.89;69.82;96415.91;5206619;56;20214;-73
2021/11/07 18:28:23;;;;;;;2.17;1.98;;;;;;;8.89;69.96;96402.13;5205887;57;20137;-72
2021/11/07 18:33:25;;;;;;;2.40;2.20;;;;;;;8.80;72.22;96410.34;5208648;57;20118;-72
2021/11/07 18:38:31;;;;;;;3.38;1.55;;;;;;;8.82;73.81;96405.16;5210386;57;20110;-71
2021/11/07 18:43:34;;;;;;;1.67;1.58;;;;;;;8.77;75.71;96413.97;5209320;57;20123;-72
2021/11/07 18:48:36;;;;;;;2.05;1.80;;;;;;;8.73;77.27;96397.56;5215421;56;20122;-72
2021/11/07 18:53:39;;;;;;;4.03;1.90;;;;;;;8.88;77.14;96408.84;5213323;56;20123;-72
2021/11/07 18:58:41;;;;;;;3.00;1.73;;;;;;;8.75;79.22;96402.66;5215440;56;20137;-72
2021/11/07 19:03:44;;;;;;;1.65;1.55;;;;;;;8.77;78.80;96414.75;5203726;57;20208;-72
2021/11/07 19:08:47;;;;;;;3.03;2.08;;;;;;;8.77;78.98;96403.75;5206325;57;20145;-73
2021/11/07 19:13:50;;;;;;;2.00;1.88;;;;;;;8.77;77.25;96416.75;5208848;57;20136;-72
2021/11/07 19:18:52;;;;;;;1.90;1.77;;;;;;;8.59;77.99;96411.84;5203786;57;20132;-72
2021/11/07 19:23:55;;;;;;;2.28;2.05;;;;;;;8.63;78.61;96405.00;5203766;57;20119;-71
2021/11/07 19:28:58;;;;;;;6.68;4.50;;;;;;;8.55;78.81;96403.72;5195863;57;20127;-71
2021/11/07 19:34:01;;;;;;;3.72;2.38;;;;;;;8.49;75.72;96408.25;5204983;57;20123;-72
2021/11/07 19:39:05;;;;;;;2.83;2.55;;;;;;;8.48;75.50;96403.94;5202927;57;20154;-72
2021/11/07 19:44:11;;;;;;;3.08;2.67;;;;;;;8.40;75.70;96407.41;5211842;56;20632;-72
2021/11/07 19:49:42;;;;;;;7.00;3.50;;;;;;;8.18;75.28;96388.06;5208106;57;20216;-72
2021/11/07 19:54:45;;;;;;;2.17;1.98;;;;;;;8.39;74.12;96408.63;5213111;57;20119;-73
2021/11/07 19:59:58;;;;;;;3.58;2.53;;;;;;;8.36;73.86;96413.03;5215961;57;20128;-74
2021/11/07 20:05:09;;;;;;;4.00;2.25;;;;;;;8.50;73.76;96418.03;5213056;57;20304;-75
2021/11/07 20:10:12;;;;;;;2.80;2.55;;;;;;;8.49;73.67;96429.50;5219939;57;20127;-71
2021/11/07 20:15:18;;;;;;;3.45;2.42;;;;;;;8.51;73.33;96416.84;5219066;56;20254;-71
2021/11/07 20:20:21;;;;;;;3.88;3.13;;;;;;;8.52;73.47;96428.63;5220407;57;20115;-71
2021/11/07 20:25:25;;;;;;;3.10;2.40;;;;;;;8.58;74.49;96430.38;5218328;57;20110;-71
2021/11/07 20:30:29;;;;;;;3.00;2.67;;;;;;;8.44;75.34;96433.59;5215477;57;20122;-71
2021/11/07 20:35:40;;;;;;;3.55;3.17;;;;;;;8.41;75.89;96428.22;5215229;57;20752;-72
2021/11/07 20:40:44;;;;;;;4.72;3.03;;;;;;;8.28;76.73;96416.47;5215191;57;20123;-72
2021/11/07 20:51:14;;;;;;;3.97;2.80;;;;;;;8.39;78.33;96447.19;5209956;57;20114;-72
2021/11/07 21:06:37;;;;;;;4.65;3.22;;;;;;;8.29;80.20;96446.31;5208453;57;20105;-71
2021/11/07 21:11:49;;;;;;;4.75;3.00;;;;;;;8.19;82.00;96461.16;5203243;57;20123;-71
2021/11/07 21:27:31;;;;;;;3.72;2.35;;;;;;;7.61;93.39;96468.91;5207771;57;20132;-72
2021/11/07 21:32:36;;;;;;;4.43;2.40;;;;;;;7.63;95.24;96474.72;5207235;57;20136;-72
2021/11/07 21:37:45;;;;;;;2.90;2.70;;;;;;;7.55;97.17;96486.38;5205817;57;20128;-72
2021/11/07 21:48:06;;;;;;;3.58;2.72;;;;;;;7.41;100.00;96484.03;5209446;57;20123;-72
2021/11/07 21:53:08;;;;;;;3.45;3.15;;;;;;;7.18;100.00;96491.38;5218638;57;20114;-72
2021/11/07 21:58:11;;;;;;;3.33;3.03;;;;;;;7.30;100.00;96489.09;5218524;56;20227;-72
2021/11/07 22:03:13;;;;;;;4.22;3.05;;;;;;;7.26;100.00;96483.69;5207439;57;20141;-72
2021/11/07 22:08:17;;;;;;;5.13;3.70;;;;;;;7.21;100.00;96484.97;5207549;57;20885;-71
2021/11/07 22:13:19;;;;;;;5.30;3.40;;;;;;;7.11;100.00;96480.56;5207709;57;20128;-71
2021/11/07 22:18:28;;;;;;;4.65;3.17;;;;;;;6.98;100.00;96487.22;5212477;57;20114;-72
2021/11/07 22:23:38;;;;;;;3.83;3.43;;;;;;;7.02;100.00;96494.19;5210050;57;20127;-72
2021/11/07 22:28:51;;;;;;;7.18;3.65;;;;;;;6.93;100.00;96491.28;5207819;56;20758;-70
2021/11/07 22:33:57;;;;;;;7.10;3.58;;;;;;;7.03;100.00;96492.19;5210153;57;20228;-71
2021/11/07 22:39:01;;;;;;;3.67;3.30;;;;;;;7.11;100.00;96488.03;5199686;57;20115;-71
2021/11/07 22:44:03;;;;;;;3.92;3.25;;;;;;;7.11;100.00;96488.03;5209163;57;20129;-71
2021/11/07 22:49:06;;;;;;;6.50;3.63;;;;;;;7.01;100.00;96494.63;5210375;57;20140;-71
2021/11/07 22:59:36;;;;;;;5.43;3.78;;;;;;;7.12;100.00;96498.59;5209113;57;20761;-71
2021/11/07 23:04:43;;;;;;;5.45;3.42;;;;;;;7.12;100.00;96500.59;5207016;57;20128;-71
2021/11/07 23:09:51;;;;;;;4.55;3.85;;;;;;;7.03;100.00;96509.44;5198767;57;20114;-71
2021/11/07 23:15:01;;;;;;;5.10;3.92;;;;;;;7.22;100.00;96505.78;5205751;56;20132;-71
2021/11/07 23:20:09;;;;;;;4.93;3.47;;;;;;;7.13;100.00;96508.38;5207554;57;20228;-71
2021/11/07 23:25:21;;;;;;;4.22;3.35;;;;;;;7.18;100.00;96510.59;5204989;57;20115;-71
2021/11/07 23:30:28;;;;;;;5.72;4.38;;;;;;;7.24;100.00;96508.06;5206027;57;20332;-71
2021/11/07 23:35:31;;;;;;;3.80;3.47;;;;;;;7.23;100.00;96512.06;5206733;57;20123;-70
2021/11/07 23:40:36;;;;;;;9.70;4.00;;;;;;;7.29;100.00;96521.28;5208759;57;20127;-71
2021/11/07 23:45:44;;;;;;;5.78;4.35;;;;;;;7.31;100.00;96518.88;5205216;57;20202;-71
2021/11/07 23:51:10;;;;;;;4.83;3.70;;;;;;;7.22;100.00;96522.25;5203889;57;20145;-71
2021/11/07 23:56:09;;;;;;;3.90;3.50;;;;;;;7.21;100.00;96526.19;5203849;56;20284;-71
